createdAt,value
2023-10-27T00:00:06.899Z,8.66
2023-10-27T00:00:27.888Z,8.66
2023-10-27T00:00:48.551Z,8.66
2023-10-27T00:01:09.060Z,8.66
2023-10-27T00:01:29.505Z,8.64
2023-10-27T00:01:50.496Z,8.66
2023-10-27T00:02:11.598Z,8.66
2023-10-27T00:02:32.012Z,8.66
2023-10-27T00:02:52.983Z,8.63
2023-10-27T00:03:13.944Z,8.64
2023-10-27T00:03:34.901Z,8.61
2023-10-27T00:03:56.034Z,8.63
2023-10-27T00:04:16.729Z,8.63
2023-10-27T00:04:37.394Z,8.64
2023-10-27T00:04:57.830Z,8.63
2023-10-27T00:05:18.778Z,8.61
2023-10-27T00:05:39.927Z,8.63
2023-10-27T00:06:00.382Z,8.61
2023-10-27T00:06:20.866Z,8.61
2023-10-27T00:06:41.865Z,8.61
2023-10-27T00:07:02.337Z,8.61
2023-10-27T00:07:23.273Z,8.60
2023-10-27T00:07:44.266Z,8.60
2023-10-27T00:08:04.778Z,8.58
2023-10-27T00:08:25.273Z,8.60
2023-10-27T00:08:45.861Z,8.60
2023-10-27T00:09:06.299Z,8.60
2023-10-27T00:09:26.801Z,8.60
2023-10-27T00:09:47.929Z,8.61
2023-10-27T00:10:08.503Z,8.61
2023-10-27T00:10:29.051Z,8.63
2023-10-27T00:10:49.603Z,8.61
2023-10-27T00:11:10.609Z,8.58
2023-10-27T00:11:31.024Z,8.63
2023-10-27T00:11:51.988Z,8.61
2023-10-27T00:12:12.960Z,8.60
2023-10-27T00:12:33.933Z,8.60
2023-10-27T00:12:55.017Z,8.60
2023-10-27T00:13:15.595Z,8.63
2023-10-27T00:13:36.139Z,8.61
2023-10-27T00:13:57.066Z,8.61
2023-10-27T00:14:17.601Z,8.61
2023-10-27T00:14:38.651Z,8.60
2023-10-27T00:14:59.099Z,8.63
2023-10-27T00:15:20.082Z,8.61
2023-10-27T00:15:41.093Z,8.61
2023-10-27T00:16:01.647Z,8.63
2023-10-27T00:16:22.161Z,8.64
2023-10-27T00:16:42.657Z,8.64
2023-10-27T00:17:03.648Z,8.64
2023-10-27T00:17:24.079Z,8.66
2023-10-27T00:17:45.081Z,8.67
2023-10-27T00:18:06.103Z,8.69
2023-10-27T00:18:26.619Z,8.69
2023-10-27T00:18:47.108Z,8.69
2023-10-27T00:19:08.165Z,8.69
2023-10-27T00:19:28.881Z,8.67
2023-10-27T00:19:49.309Z,8.66
2023-10-27T00:20:10.342Z,8.64
2023-10-27T00:20:30.874Z,8.66
2023-10-27T00:20:51.796Z,8.63
2023-10-27T00:21:12.928Z,8.61
2023-10-27T00:21:33.361Z,8.61
2023-10-27T00:21:54.478Z,8.61
2023-10-27T00:22:15.051Z,8.58
2023-10-27T00:22:35.608Z,8.58
2023-10-27T00:22:56.055Z,8.56
2023-10-27T00:23:17.087Z,8.58
2023-10-27T00:23:38.045Z,8.60
2023-10-27T00:23:59.042Z,8.56
2023-10-27T00:24:20.046Z,8.58
2023-10-27T00:24:40.681Z,8.58
2023-10-27T00:25:01.295Z,8.55
2023-10-27T00:25:21.803Z,8.55
2023-10-27T00:25:42.224Z,8.52
2023-10-27T00:26:03.397Z,8.52
2023-10-27T00:26:24.011Z,8.49
2023-10-27T00:26:44.370Z,8.49
2023-10-27T00:27:05.375Z,8.46
2023-10-27T00:27:26.407Z,8.46
2023-10-27T00:27:46.981Z,8.45
2023-10-27T00:28:07.604Z,8.46
2023-10-27T00:28:28.128Z,8.45
2023-10-27T00:28:48.717Z,8.42
2023-10-27T00:29:09.165Z,8.45
2023-10-27T00:29:30.179Z,8.44
2023-10-27T00:29:50.797Z,8.42
2023-10-27T00:30:11.246Z,8.44
2023-10-27T00:30:31.936Z,8.41
2023-10-27T00:30:52.397Z,8.41
2023-10-27T00:31:14.685Z,8.41
2023-10-27T00:31:34.199Z,8.42
2023-10-27T00:31:55.210Z,8.44
2023-10-27T00:32:16.129Z,8.42
2023-10-27T00:32:37.255Z,8.41
2023-10-27T00:32:57.789Z,8.44
2023-10-27T00:33:18.336Z,8.44
2023-10-27T00:33:38.808Z,8.45
2023-10-27T00:33:59.856Z,8.45
2023-10-27T00:34:20.561Z,8.44
2023-10-27T00:34:41.322Z,8.45
2023-10-27T00:35:01.868Z,8.45
2023-10-27T00:35:22.886Z,8.44
2023-10-27T00:35:43.367Z,8.44
2023-10-27T00:36:04.340Z,8.44
2023-10-27T00:36:24.887Z,8.45
2023-10-27T00:36:45.885Z,8.44
2023-10-27T00:37:06.483Z,8.45
2023-10-27T00:37:26.951Z,8.42
2023-10-27T00:37:47.891Z,8.42
2023-10-27T00:38:08.937Z,8.38
2023-10-27T00:38:29.427Z,8.38
2023-10-27T00:38:50.015Z,8.37
2023-10-27T00:39:10.473Z,8.38
2023-10-27T00:39:30.974Z,8.38
2023-10-27T00:39:51.504Z,8.37
2023-10-27T00:40:12.049Z,8.36
2023-10-27T00:40:32.650Z,8.36
2023-10-27T00:40:53.651Z,8.34
2023-10-27T00:41:14.376Z,8.34
2023-10-27T00:41:34.707Z,8.31
2023-10-27T00:41:55.682Z,8.28
2023-10-27T00:42:16.715Z,8.26
2023-10-27T00:42:38.635Z,8.26
2023-10-27T00:42:59.246Z,8.24
2023-10-27T00:43:19.501Z,8.26
2023-10-27T00:43:40.271Z,8.26
2023-10-27T00:44:00.826Z,8.24
2023-10-27T00:44:21.707Z,8.26
2023-10-27T00:44:42.152Z,8.24
2023-10-27T00:45:03.242Z,8.26
2023-10-27T00:45:23.757Z,8.24
2023-10-27T00:45:44.724Z,8.23
2023-10-27T00:46:05.262Z,8.24
2023-10-27T00:46:26.313Z,8.23
2023-10-27T00:46:46.545Z,8.20
2023-10-27T00:47:07.123Z,8.19
2023-10-27T00:47:27.820Z,8.20
2023-10-27T00:47:48.995Z,8.19
2023-10-27T00:48:09.217Z,8.23
2023-10-27T00:48:29.737Z,8.19
2023-10-27T00:48:50.524Z,8.19
2023-10-27T00:49:11.064Z,8.19
2023-10-27T00:49:31.677Z,8.23
2023-10-27T00:49:52.393Z,8.19
2023-10-27T00:50:12.984Z,8.23
2023-10-27T00:50:33.500Z,8.23
2023-10-27T00:50:53.954Z,8.23
2023-10-27T00:51:14.925Z,8.24
2023-10-27T00:51:36.151Z,8.23
2023-10-27T00:51:56.871Z,8.24
2023-10-27T00:52:17.387Z,8.24
2023-10-27T00:52:37.996Z,8.23
2023-10-27T00:52:58.480Z,8.23
2023-10-27T00:53:19.069Z,8.23
2023-10-27T00:53:39.785Z,8.24
2023-10-27T00:54:00.262Z,8.23
2023-10-27T00:54:20.746Z,8.20
2023-10-27T00:54:41.784Z,8.23
2023-10-27T00:55:02.257Z,8.20
2023-10-27T00:55:22.798Z,8.20
2023-10-27T00:55:43.342Z,8.20
2023-10-27T00:56:03.897Z,8.23
2023-10-27T00:56:24.622Z,8.19
2023-10-27T00:56:45.098Z,8.20
2023-10-27T00:57:05.584Z,8.18
2023-10-27T00:57:26.587Z,8.19
2023-10-27T00:57:47.231Z,8.16
2023-10-27T00:58:08.021Z,8.16
2023-10-27T00:58:29.053Z,8.18
2023-10-27T00:58:49.186Z,8.19
2023-10-27T00:59:09.632Z,8.18
2023-10-27T00:59:31.591Z,8.18
2023-10-27T00:59:51.627Z,8.16
2023-10-27T01:00:12.154Z,8.18
2023-10-27T01:00:32.782Z,8.16
2023-10-27T01:00:54.053Z,8.16
2023-10-27T01:01:14.080Z,8.15
2023-10-27T01:01:34.612Z,8.16
2023-10-27T01:01:55.100Z,8.16
2023-10-27T01:02:16.027Z,8.13
2023-10-27T01:02:37.165Z,8.12
2023-10-27T01:02:57.670Z,8.10
2023-10-27T01:03:18.193Z,8.13
2023-10-27T01:03:38.743Z,8.12
2023-10-27T01:03:59.394Z,8.12
2023-10-27T01:04:20.007Z,8.12
2023-10-27T01:04:40.646Z,8.13
2023-10-27T01:05:01.346Z,8.15
2023-10-27T01:05:21.866Z,8.10
2023-10-27T01:05:43.029Z,8.13
2023-10-27T01:06:03.549Z,8.13
2023-10-27T01:06:24.117Z,8.12
2023-10-27T01:06:44.660Z,8.12
2023-10-27T01:07:05.355Z,8.15
2023-10-27T01:07:25.890Z,8.13
2023-10-27T01:07:46.607Z,8.16
2023-10-27T01:08:07.310Z,8.13
2023-10-27T01:08:27.765Z,8.13
2023-10-27T01:08:48.277Z,8.15
2023-10-27T01:09:08.821Z,8.13
2023-10-27T01:09:29.837Z,8.15
2023-10-27T01:09:50.443Z,8.15
2023-10-27T01:10:10.939Z,8.18
2023-10-27T01:10:31.626Z,8.13
2023-10-27T01:10:52.194Z,8.13
2023-10-27T01:11:12.632Z,8.13
2023-10-27T01:11:33.701Z,8.16
2023-10-27T01:11:54.152Z,8.13
2023-10-27T01:12:15.787Z,8.12
2023-10-27T01:12:35.854Z,8.13
2023-10-27T01:12:56.402Z,8.15
2023-10-27T01:13:16.864Z,8.13
2023-10-27T01:13:37.656Z,8.12
2023-10-27T01:13:58.143Z,8.12
2023-10-27T01:14:18.557Z,8.13
2023-10-27T01:14:39.645Z,8.13
2023-10-27T01:15:00.075Z,8.13
2023-10-27T01:15:20.860Z,8.13
2023-10-27T01:15:41.384Z,8.13
2023-10-27T01:16:02.576Z,8.12
2023-10-27T01:16:23.317Z,8.10
2023-10-27T01:16:43.749Z,8.10
2023-10-27T01:17:04.749Z,8.12
2023-10-27T01:17:25.520Z,8.12
2023-10-27T01:17:46.121Z,8.12
2023-10-27T01:18:06.670Z,8.12
2023-10-27T01:18:27.182Z,8.12
2023-10-27T01:18:47.718Z,8.12
2023-10-27T01:19:08.516Z,8.10
2023-10-27T01:19:29.347Z,8.12
2023-10-27T01:19:51.679Z,8.12
2023-10-27T01:20:11.130Z,8.13
2023-10-27T01:20:31.969Z,8.12
2023-10-27T01:20:52.721Z,8.12
2023-10-27T01:21:13.344Z,8.13
2023-10-27T01:21:33.957Z,8.15
2023-10-27T01:21:54.486Z,8.10
2023-10-27T01:22:15.539Z,8.12
2023-10-27T01:22:36.113Z,8.13
2023-10-27T01:22:57.074Z,8.13
2023-10-27T01:23:17.492Z,8.13
2023-10-27T01:23:38.661Z,8.13
2023-10-27T01:23:59.139Z,8.13
2023-10-27T01:24:19.909Z,8.13
2023-10-27T01:24:40.413Z,8.12
2023-10-27T01:25:01.135Z,8.13
2023-10-27T01:25:21.653Z,8.12
2023-10-27T01:25:42.236Z,8.15
2023-10-27T01:26:02.823Z,8.13
2023-10-27T01:26:23.415Z,8.12
2023-10-27T01:26:43.963Z,8.13
2023-10-27T01:27:04.756Z,8.15
2023-10-27T01:27:25.313Z,8.15
2023-10-27T01:27:45.855Z,8.12
2023-10-27T01:28:06.460Z,8.13
2023-10-27T01:28:27.034Z,8.12
2023-10-27T01:28:47.511Z,8.12
2023-10-27T01:29:08.157Z,8.13
2023-10-27T01:29:28.593Z,8.13
2023-10-27T01:29:49.627Z,8.12
2023-10-27T01:30:10.672Z,8.13
2023-10-27T01:30:30.690Z,8.13
2023-10-27T01:30:51.327Z,8.12
2023-10-27T01:31:11.909Z,8.13
2023-10-27T01:31:32.536Z,8.13
2023-10-27T01:31:52.920Z,8.13
2023-10-27T01:32:13.905Z,8.12
2023-10-27T01:32:34.911Z,8.13
2023-10-27T01:32:55.858Z,8.13
2023-10-27T01:33:16.784Z,8.12
2023-10-27T01:33:37.986Z,8.12
2023-10-27T01:33:58.634Z,8.13
2023-10-27T01:34:19.209Z,8.13
2023-10-27T01:34:39.764Z,8.12
2023-10-27T01:35:00.494Z,8.12
2023-10-27T01:35:20.915Z,8.13
2023-10-27T01:35:41.968Z,8.12
2023-10-27T01:36:02.529Z,8.12
2023-10-27T01:36:23.081Z,8.09
2023-10-27T01:36:43.613Z,8.09
2023-10-27T01:37:04.589Z,8.10
2023-10-27T01:37:25.071Z,8.12
2023-10-27T01:37:46.017Z,8.12
2023-10-27T01:38:06.974Z,8.12
2023-10-27T01:38:27.978Z,8.12
2023-10-27T01:38:48.965Z,8.10
2023-10-27T01:39:09.977Z,8.10
2023-10-27T01:39:30.533Z,8.12
2023-10-27T01:39:51.192Z,8.09
2023-10-27T01:40:11.693Z,8.10
2023-10-27T01:40:32.084Z,8.09
2023-10-27T01:40:53.112Z,8.10
2023-10-27T01:41:13.638Z,8.09
2023-10-27T01:41:34.163Z,8.10
2023-10-27T01:41:54.592Z,8.08
2023-10-27T01:42:15.608Z,8.09
2023-10-27T01:42:36.238Z,8.09
2023-10-27T01:42:56.780Z,8.08
2023-10-27T01:43:17.330Z,8.09
2023-10-27T01:43:37.785Z,8.08
2023-10-27T01:43:58.728Z,8.09
2023-10-27T01:44:19.813Z,8.09
2023-10-27T01:44:40.274Z,8.09
2023-10-27T01:45:01.311Z,8.10
2023-10-27T01:45:22.277Z,8.09
2023-10-27T01:45:43.337Z,8.10
2023-10-27T01:46:03.938Z,8.10
2023-10-27T01:46:24.465Z,8.09
2023-10-27T01:46:45.033Z,8.10
2023-10-27T01:47:05.480Z,8.10
2023-10-27T01:47:26.052Z,8.10
2023-10-27T01:47:46.530Z,8.09
2023-10-27T01:48:07.608Z,8.09
2023-10-27T01:48:28.194Z,8.09
2023-10-27T01:48:48.673Z,8.10
2023-10-27T01:49:09.777Z,8.08
2023-10-27T01:49:30.400Z,8.10
2023-10-27T01:49:50.933Z,8.09
2023-10-27T01:50:11.391Z,8.09
2023-10-27T01:50:32.471Z,8.10
2023-10-27T01:50:52.964Z,8.09
2023-10-27T01:51:14.029Z,8.09
2023-10-27T01:51:34.547Z,8.09
2023-10-27T01:51:55.081Z,8.08
2023-10-27T01:52:15.573Z,8.09
2023-10-27T01:52:36.540Z,8.08
2023-10-27T01:52:57.026Z,8.09
2023-10-27T01:53:18.025Z,8.09
2023-10-27T01:53:39.023Z,8.10
2023-10-27T01:53:59.478Z,8.08
2023-10-27T01:54:20.469Z,8.06
2023-10-27T01:54:41.458Z,8.08
2023-10-27T01:55:02.499Z,8.08
2023-10-27T01:55:23.021Z,8.08
2023-10-27T01:55:43.588Z,8.08
2023-10-27T01:56:04.149Z,8.09
2023-10-27T01:56:24.618Z,8.08
2023-10-27T01:56:45.586Z,8.09
2023-10-27T01:57:06.510Z,8.09
2023-10-27T01:57:27.490Z,8.09
2023-10-27T01:57:48.002Z,8.09
2023-10-27T01:58:08.976Z,8.10
2023-10-27T01:58:29.991Z,8.09
2023-10-27T01:58:50.519Z,8.09
2023-10-27T01:59:10.962Z,8.10
2023-10-27T01:59:31.941Z,8.10
2023-10-27T01:59:52.924Z,8.10
2023-10-27T02:00:13.893Z,8.12
2023-10-27T02:00:35.063Z,8.12
2023-10-27T02:00:55.917Z,8.10
2023-10-27T02:01:16.623Z,8.10
2023-10-27T02:01:37.068Z,8.10
2023-10-27T02:01:58.062Z,8.09
2023-10-27T02:02:18.536Z,8.09
2023-10-27T02:02:39.472Z,8.10
2023-10-27T02:03:00.458Z,8.10
2023-10-27T02:03:21.400Z,8.09
2023-10-27T02:04:03.396Z,8.12
2023-10-27T02:04:23.881Z,8.09
2023-10-27T02:04:44.446Z,8.10
2023-10-27T02:05:05.126Z,8.10
2023-10-27T02:05:25.581Z,8.12
2023-10-27T02:05:46.179Z,8.12
2023-10-27T02:06:06.618Z,8.10
2023-10-27T02:06:27.701Z,8.09
2023-10-27T02:06:48.138Z,8.09
2023-10-27T02:07:09.210Z,8.06
2023-10-27T02:07:29.654Z,8.08
2023-10-27T02:07:50.639Z,8.09
2023-10-27T02:08:11.587Z,8.08
2023-10-27T02:08:32.150Z,8.06
2023-10-27T02:08:52.652Z,8.08
2023-10-27T02:09:13.697Z,8.06
2023-10-27T02:09:34.273Z,8.06
2023-10-27T02:09:54.743Z,8.08
2023-10-27T02:10:15.307Z,8.08
2023-10-27T02:10:35.793Z,8.06
2023-10-27T02:10:56.748Z,8.08
2023-10-27T02:11:17.355Z,8.06
2023-10-27T02:11:37.809Z,8.08
2023-10-27T02:11:58.872Z,8.08
2023-10-27T02:12:19.306Z,8.09
2023-10-27T02:12:40.309Z,8.06
2023-10-27T02:13:01.312Z,8.08
2023-10-27T02:13:21.843Z,8.08
2023-10-27T02:13:42.296Z,8.08
2023-10-27T02:14:03.341Z,8.09
2023-10-27T02:14:23.897Z,8.08
2023-10-27T02:14:44.421Z,8.08
2023-10-27T02:15:04.936Z,8.09
2023-10-27T02:15:25.987Z,8.09
2023-10-27T02:15:46.412Z,8.09
2023-10-27T02:16:07.543Z,8.06
2023-10-27T02:16:28.016Z,8.08
2023-10-27T02:16:49.029Z,8.08
2023-10-27T02:17:09.539Z,8.08
2023-10-27T02:17:30.511Z,8.09
2023-10-27T02:17:51.476Z,8.08
2023-10-27T02:18:12.493Z,8.08
2023-10-27T02:18:33.027Z,8.08
2023-10-27T02:18:53.528Z,8.10
2023-10-27T02:19:14.224Z,8.08
2023-10-27T02:19:35.192Z,8.09
2023-10-27T02:19:55.771Z,8.08
2023-10-27T02:20:16.492Z,8.09
2023-10-27T02:20:36.936Z,8.09
2023-10-27T02:20:57.902Z,8.08
2023-10-27T02:21:19.042Z,8.08
2023-10-27T02:21:39.601Z,8.09
2023-10-27T02:22:00.219Z,8.09
2023-10-27T02:22:20.763Z,8.09
2023-10-27T02:22:41.142Z,8.09
2023-10-27T02:23:02.101Z,8.09
2023-10-27T02:23:23.223Z,8.10
2023-10-27T02:23:43.712Z,8.12
2023-10-27T02:24:04.177Z,8.10
2023-10-27T02:24:25.135Z,8.13
2023-10-27T02:24:46.393Z,8.13
2023-10-27T02:25:06.899Z,8.12
2023-10-27T02:25:27.590Z,8.12
2023-10-27T02:25:47.983Z,8.12
2023-10-27T02:26:09.174Z,8.12
2023-10-27T02:26:29.677Z,8.12
2023-10-27T02:26:50.240Z,8.12
2023-10-27T02:27:10.714Z,8.12
2023-10-27T02:27:32.013Z,8.13
2023-10-27T02:27:52.537Z,8.12
2023-10-27T02:28:13.022Z,8.10
2023-10-27T02:28:33.541Z,8.10
2023-10-27T02:28:54.565Z,8.13
2023-10-27T02:29:15.060Z,8.13
2023-10-27T02:29:35.604Z,8.13
2023-10-27T02:29:56.316Z,8.13
2023-10-27T02:30:16.866Z,8.12
2023-10-27T02:30:37.455Z,8.12
2023-10-27T02:30:57.988Z,8.13
2023-10-27T02:31:18.649Z,8.10
2023-10-27T02:31:39.108Z,8.12
2023-10-27T02:32:00.266Z,8.12
2023-10-27T02:32:20.698Z,8.09
2023-10-27T02:32:41.814Z,8.09
2023-10-27T02:33:02.418Z,8.10
2023-10-27T02:33:23.160Z,8.10
2023-10-27T02:33:43.786Z,8.10
2023-10-27T02:34:04.400Z,8.10
2023-10-27T02:34:24.862Z,8.10
2023-10-27T02:34:45.829Z,8.09
2023-10-27T02:35:06.920Z,8.10
2023-10-27T02:35:27.527Z,8.09
2023-10-27T02:35:48.235Z,8.08
2023-10-27T02:36:08.814Z,8.09
2023-10-27T02:36:29.431Z,8.08
2023-10-27T02:36:49.998Z,8.09
2023-10-27T02:37:10.538Z,8.06
2023-10-27T02:37:31.145Z,8.05
2023-10-27T02:37:51.645Z,8.08
2023-10-27T02:38:12.672Z,8.06
2023-10-27T02:38:33.205Z,8.05
2023-10-27T02:38:53.668Z,8.08
2023-10-27T02:39:14.682Z,8.05
2023-10-27T02:39:35.162Z,8.08
2023-10-27T02:39:56.547Z,8.06
2023-10-27T02:40:17.204Z,8.06
2023-10-27T02:40:39.887Z,8.06
2023-10-27T02:40:58.830Z,8.08
2023-10-27T02:41:19.294Z,8.06
2023-10-27T02:41:39.807Z,8.05
2023-10-27T02:42:00.740Z,8.06
2023-10-27T02:42:22.012Z,8.05
2023-10-27T02:42:42.782Z,8.06
2023-10-27T02:43:03.461Z,8.08
2023-10-27T02:43:24.037Z,8.06
2023-10-27T02:43:44.604Z,8.08
2023-10-27T02:44:05.067Z,8.08
2023-10-27T02:44:26.090Z,8.06
2023-10-27T02:44:46.559Z,8.06
2023-10-27T02:45:07.077Z,8.08
2023-10-27T02:45:27.562Z,8.06
2023-10-27T02:45:48.557Z,8.08
2023-10-27T02:46:09.771Z,8.09
2023-10-27T02:46:30.414Z,8.09
2023-10-27T02:46:50.954Z,8.09
2023-10-27T02:47:11.403Z,8.09
2023-10-27T02:47:32.391Z,8.08
2023-10-27T02:47:52.887Z,8.09
2023-10-27T02:48:13.974Z,8.08
2023-10-27T02:48:34.508Z,8.08
2023-10-27T02:48:55.072Z,8.08
2023-10-27T02:49:15.536Z,8.09
2023-10-27T02:49:36.476Z,8.08
2023-10-27T02:49:57.412Z,8.09
2023-10-27T02:50:18.373Z,8.10
2023-10-27T02:50:39.399Z,8.09
2023-10-27T02:51:00.006Z,8.12
2023-10-27T02:51:20.479Z,8.10
2023-10-27T02:51:41.045Z,8.09
2023-10-27T02:52:01.560Z,8.08
2023-10-27T02:52:22.524Z,8.09
2023-10-27T02:52:43.608Z,8.09
2023-10-27T02:53:04.083Z,8.09
2023-10-27T02:53:25.084Z,8.10
2023-10-27T02:53:46.051Z,8.09
2023-10-27T02:54:07.055Z,8.08
2023-10-27T02:54:28.091Z,8.09
2023-10-27T02:54:48.575Z,8.08
2023-10-27T02:55:09.703Z,8.08
2023-10-27T02:55:30.257Z,8.08
2023-10-27T02:55:50.740Z,8.05
2023-10-27T02:56:11.223Z,8.08
2023-10-27T02:56:32.207Z,8.05
2023-10-27T02:56:53.267Z,8.05
2023-10-27T02:57:13.797Z,8.05
2023-10-27T02:57:34.260Z,8.05
2023-10-27T02:57:55.306Z,8.05
2023-10-27T02:58:15.771Z,8.03
2023-10-27T02:58:36.757Z,8.03
2023-10-27T02:58:57.263Z,8.03
2023-10-27T02:59:18.239Z,8.05
2023-10-27T02:59:39.305Z,8.05
2023-10-27T02:59:59.872Z,8.05
2023-10-27T03:00:20.412Z,8.03
2023-10-27T03:00:40.880Z,8.05
2023-10-27T03:01:01.911Z,8.06
2023-10-27T03:01:22.290Z,8.06
2023-10-27T03:01:43.320Z,8.03
2023-10-27T03:02:04.276Z,8.03
2023-10-27T03:02:24.763Z,8.05
2023-10-27T03:02:45.750Z,8.05
2023-10-27T03:03:06.708Z,8.03
2023-10-27T03:03:27.669Z,8.03
2023-10-27T03:03:48.676Z,8.05
2023-10-27T03:04:09.725Z,8.03
2023-10-27T03:04:30.270Z,8.03
2023-10-27T03:04:50.766Z,8.03
2023-10-27T03:05:11.370Z,8.03
2023-10-27T03:05:31.925Z,8.01
2023-10-27T03:05:52.426Z,8.03
2023-10-27T03:06:13.089Z,8.03
2023-10-27T03:06:33.706Z,8.03
2023-10-27T03:06:54.256Z,8.03
2023-10-27T03:07:15.004Z,8.03
2023-10-27T03:07:35.533Z,8.03
2023-10-27T03:07:56.187Z,8.03
2023-10-27T03:08:16.748Z,8.06
2023-10-27T03:08:37.483Z,8.05
2023-10-27T03:08:57.960Z,8.05
2023-10-27T03:09:19.266Z,8.05
2023-10-27T03:09:40.403Z,8.03
2023-10-27T03:10:02.399Z,8.05
2023-10-27T03:10:21.159Z,8.05
2023-10-27T03:10:41.932Z,8.03
2023-10-27T03:11:02.770Z,8.05
2023-10-27T03:11:23.712Z,8.05
2023-10-27T03:11:44.415Z,8.05
2023-10-27T03:12:05.081Z,8.03
2023-10-27T03:12:25.641Z,8.06
2023-10-27T03:12:46.208Z,8.05
2023-10-27T03:13:06.969Z,8.06
2023-10-27T03:13:27.804Z,8.06
2023-10-27T03:13:48.626Z,8.06
2023-10-27T03:14:09.131Z,8.03
2023-10-27T03:14:29.643Z,8.06
2023-10-27T03:14:50.169Z,8.05
2023-10-27T03:15:10.698Z,8.05
2023-10-27T03:15:31.726Z,8.03
2023-10-27T03:15:52.351Z,8.06
2023-10-27T03:16:12.930Z,8.05
2023-10-27T03:16:33.466Z,8.06
2023-10-27T03:16:54.066Z,8.06
2023-10-27T03:17:14.730Z,8.06
2023-10-27T03:17:35.253Z,8.06
2023-10-27T03:17:55.766Z,8.05
2023-10-27T03:18:16.386Z,8.06
2023-10-27T03:18:36.929Z,8.08
2023-10-27T03:18:57.608Z,8.06
2023-10-27T03:19:18.265Z,8.08
2023-10-27T03:19:39.152Z,8.08
2023-10-27T03:19:59.799Z,8.08
2023-10-27T03:20:20.448Z,8.08
2023-10-27T03:20:41.000Z,8.09
2023-10-27T03:21:01.479Z,8.09
2023-10-27T03:21:22.044Z,8.10
2023-10-27T03:21:42.495Z,8.09
2023-10-27T03:22:03.534Z,8.09
2023-10-27T03:22:24.101Z,8.08
2023-10-27T03:22:44.655Z,8.08
2023-10-27T03:23:05.208Z,8.08
2023-10-27T03:23:25.684Z,8.08
2023-10-27T03:23:46.215Z,8.08
2023-10-27T03:24:06.739Z,8.08
2023-10-27T03:24:27.818Z,8.08
2023-10-27T03:24:48.499Z,8.08
2023-10-27T03:25:09.241Z,8.08
2023-10-27T03:25:29.731Z,8.08
2023-10-27T03:25:50.852Z,8.06
2023-10-27T03:26:11.511Z,8.06
2023-10-27T03:26:32.181Z,8.06
2023-10-27T03:26:52.774Z,8.06
2023-10-27T03:27:13.410Z,8.05
2023-10-27T03:27:33.981Z,8.05
2023-10-27T03:27:54.348Z,8.05
2023-10-27T03:28:15.425Z,8.03
2023-10-27T03:28:35.967Z,8.03
2023-10-27T03:28:56.526Z,8.01
2023-10-27T03:29:17.138Z,8.05
2023-10-27T03:29:37.773Z,8.05
2023-10-27T03:29:58.205Z,8.05
2023-10-27T03:30:19.208Z,8.05
2023-10-27T03:30:40.228Z,8.03
2023-10-27T03:31:00.757Z,8.06
2023-10-27T03:31:21.429Z,8.05
2023-10-27T03:31:41.920Z,8.05
2023-10-27T03:32:02.531Z,8.06
2023-10-27T03:32:22.986Z,8.05
2023-10-27T03:32:43.684Z,8.08
2023-10-27T03:33:04.124Z,8.06
2023-10-27T03:33:25.123Z,8.08
2023-10-27T03:33:46.137Z,8.06
2023-10-27T03:34:06.679Z,8.08
2023-10-27T03:34:27.305Z,8.09
2023-10-27T03:34:47.885Z,8.09
2023-10-27T03:35:08.560Z,8.08
2023-10-27T03:35:29.020Z,8.08
2023-10-27T03:35:50.057Z,8.10
2023-10-27T03:36:10.539Z,8.09
2023-10-27T03:36:31.563Z,8.12
2023-10-27T03:36:51.987Z,8.10
2023-10-27T03:37:12.995Z,8.10
2023-10-27T03:37:33.959Z,8.10
2023-10-27T03:37:55.022Z,8.10
2023-10-27T03:38:15.461Z,8.10
2023-10-27T03:38:36.403Z,8.12
2023-10-27T03:38:57.416Z,8.10
2023-10-27T03:39:18.428Z,8.13
2023-10-27T03:39:38.937Z,8.13
2023-10-27T03:40:00.052Z,8.12
2023-10-27T03:40:20.643Z,8.12
2023-10-27T03:40:41.190Z,8.12
2023-10-27T03:41:01.741Z,8.12
2023-10-27T03:41:22.366Z,8.10
2023-10-27T03:41:42.829Z,8.10
2023-10-27T03:42:03.321Z,8.10
2023-10-27T03:42:24.233Z,8.09
2023-10-27T03:42:45.242Z,8.08
2023-10-27T03:43:06.367Z,8.08
2023-10-27T03:43:26.933Z,8.08
2023-10-27T03:43:47.436Z,8.08
2023-10-27T03:44:07.985Z,8.06
2023-10-27T03:44:28.485Z,8.08
2023-10-27T03:44:48.960Z,8.06
2023-10-27T03:45:09.509Z,8.05
2023-10-27T03:45:30.042Z,8.06
2023-10-27T03:45:50.598Z,8.06
2023-10-27T03:46:11.224Z,8.06
2023-10-27T03:46:31.714Z,8.06
2023-10-27T03:46:52.692Z,8.06
2023-10-27T03:47:13.283Z,8.05
2023-10-27T03:47:33.804Z,8.08
2023-10-27T03:47:54.344Z,8.05
2023-10-27T03:48:15.025Z,8.06
2023-10-27T03:48:35.531Z,8.06
2023-10-27T03:48:56.059Z,8.09
2023-10-27T03:49:16.529Z,8.08
2023-10-27T03:49:37.504Z,8.08
2023-10-27T03:49:58.484Z,8.09
2023-10-27T03:50:19.001Z,8.09
2023-10-27T03:50:39.423Z,8.06
2023-10-27T03:51:00.455Z,8.09
2023-10-27T03:51:20.895Z,8.09
2023-10-27T03:51:41.999Z,8.08
2023-10-27T03:52:02.539Z,8.09
2023-10-27T03:52:23.102Z,8.08
2023-10-27T03:52:43.638Z,8.09
2023-10-27T03:53:04.223Z,8.08
2023-10-27T03:53:24.782Z,8.08
2023-10-27T03:53:45.255Z,8.06
2023-10-27T03:54:06.215Z,8.08
2023-10-27T03:54:27.248Z,8.08
2023-10-27T03:54:47.731Z,8.08
2023-10-27T03:55:08.919Z,8.06
2023-10-27T03:55:29.473Z,8.08
2023-10-27T03:55:50.485Z,8.08
2023-10-27T03:56:10.927Z,8.08
2023-10-27T03:56:31.872Z,8.06
2023-10-27T03:56:52.919Z,8.06
2023-10-27T03:57:13.402Z,8.06
2023-10-27T03:57:34.450Z,8.05
2023-10-27T03:57:54.952Z,8.03
2023-10-27T03:58:15.896Z,8.05
2023-10-27T03:58:47.528Z,8.05
2023-10-27T03:58:58.805Z,8.05
2023-10-27T03:59:18.267Z,8.05
2023-10-27T03:59:39.195Z,8.05
2023-10-27T04:00:00.171Z,8.05
2023-10-27T04:00:21.142Z,8.05
2023-10-27T04:00:42.091Z,8.05
2023-10-27T04:01:03.058Z,8.06
2023-10-27T04:01:24.062Z,8.06
2023-10-27T04:01:44.987Z,8.08
2023-10-27T04:02:05.936Z,8.05
2023-10-27T04:02:26.974Z,8.08
2023-10-27T04:02:47.560Z,8.08
2023-10-27T04:03:08.066Z,8.06
2023-10-27T04:03:29.072Z,8.08
2023-10-27T04:03:49.615Z,8.08
2023-10-27T04:04:10.165Z,8.08
2023-10-27T04:04:30.794Z,8.10
2023-10-27T04:04:51.366Z,8.09
2023-10-27T04:05:11.986Z,8.09
2023-10-27T04:05:32.496Z,8.08
2023-10-27T04:05:53.430Z,8.08
2023-10-27T04:06:14.385Z,8.09
2023-10-27T04:06:35.426Z,8.09
2023-10-27T04:06:55.924Z,8.09
2023-10-27T04:07:17.005Z,8.09
2023-10-27T04:07:37.534Z,8.08
2023-10-27T04:07:57.990Z,8.09
2023-10-27T04:08:19.020Z,8.08
2023-10-27T04:08:39.498Z,8.08
2023-10-27T04:08:59.975Z,8.08
2023-10-27T04:09:20.983Z,8.08
2023-10-27T04:09:41.507Z,8.08
2023-10-27T04:10:02.127Z,8.08
2023-10-27T04:10:22.620Z,8.08
2023-10-27T04:10:43.526Z,8.08
2023-10-27T04:11:04.488Z,8.10
2023-10-27T04:11:25.510Z,8.09
2023-10-27T04:11:46.460Z,8.09
2023-10-27T04:12:07.458Z,8.09
2023-10-27T04:12:28.469Z,8.09
2023-10-27T04:12:49.376Z,8.08
2023-10-27T04:13:10.422Z,8.10
2023-10-27T04:13:30.879Z,8.12
2023-10-27T04:13:51.834Z,8.10
2023-10-27T04:14:12.864Z,8.13
2023-10-27T04:14:33.371Z,8.12
2023-10-27T04:14:54.344Z,8.13
2023-10-27T04:15:14.906Z,8.12
2023-10-27T04:15:35.452Z,8.13
2023-10-27T04:15:55.978Z,8.12
2023-10-27T04:16:16.519Z,8.13
2023-10-27T04:16:37.004Z,8.13
2023-10-27T04:16:57.470Z,8.15
2023-10-27T04:17:18.418Z,8.15
2023-10-27T04:17:39.874Z,8.15
2023-10-27T04:18:00.411Z,8.15
2023-10-27T04:18:20.983Z,8.15
2023-10-27T04:18:41.538Z,8.16
2023-10-27T04:19:02.488Z,8.12
2023-10-27T04:19:23.490Z,8.15
2023-10-27T04:19:44.712Z,8.15
2023-10-27T04:20:05.477Z,8.13
2023-10-27T04:20:25.977Z,8.15
2023-10-27T04:20:46.954Z,8.15
2023-10-27T04:21:07.388Z,8.13
2023-10-27T04:21:28.372Z,8.15
2023-10-27T04:21:49.433Z,8.15
2023-10-27T04:22:09.873Z,8.15
2023-10-27T04:22:30.878Z,8.13
2023-10-27T04:22:51.824Z,8.13
2023-10-27T04:23:12.848Z,8.16
2023-10-27T04:23:33.800Z,8.15
2023-10-27T04:23:54.871Z,8.15
2023-10-27T04:24:15.348Z,8.15
2023-10-27T04:24:35.823Z,8.15
2023-10-27T04:24:56.811Z,8.12
2023-10-27T04:25:17.774Z,8.15
2023-10-27T04:25:38.301Z,8.13
2023-10-27T04:25:59.303Z,8.16
2023-10-27T04:26:19.738Z,8.15
2023-10-27T04:26:40.711Z,8.18
2023-10-27T04:27:01.738Z,8.16
2023-10-27T04:27:22.187Z,8.18
2023-10-27T04:27:43.146Z,8.18
2023-10-27T04:28:04.161Z,8.18
2023-10-27T04:28:25.146Z,8.19
2023-10-27T04:28:45.612Z,8.18
2023-10-27T04:29:06.573Z,8.19
2023-10-27T04:29:27.513Z,8.19
2023-10-27T04:29:48.510Z,8.18
2023-10-27T04:30:09.554Z,8.18
2023-10-27T04:30:30.059Z,8.18
2023-10-27T04:30:50.599Z,8.18
2023-10-27T04:31:11.019Z,8.19
2023-10-27T04:31:31.999Z,8.20
2023-10-27T04:31:52.977Z,8.19
2023-10-27T04:32:13.978Z,8.20
2023-10-27T04:32:34.474Z,8.20
2023-10-27T04:32:55.222Z,8.19
2023-10-27T04:33:15.835Z,8.20
2023-10-27T04:33:36.348Z,8.20
2023-10-27T04:33:56.835Z,8.23
2023-10-27T04:34:17.801Z,8.23
2023-10-27T04:34:38.753Z,8.19
2023-10-27T04:34:59.777Z,8.23
2023-10-27T04:35:20.249Z,8.20
2023-10-27T04:35:41.265Z,8.20
2023-10-27T04:36:01.732Z,8.23